createdAt,value
2022-10-30T19:37:12.681Z,28.1
2022-10-30T19:42:34.877Z,28.1
2022-10-30T19:47:55.513Z,27.8
2022-10-30T19:53:51.187Z,27.3
2022-10-30T19:58:59.112Z,27.1
2022-10-30T20:04:06.452Z,26.8
2022-10-30T20:09:48.583Z,26.6
2022-10-30T20:15:16.197Z,26.4
2022-10-30T20:20:22.448Z,26.3
2022-10-30T20:26:04.075Z,26.3
2022-10-30T20:31:46.572Z,26.2
2022-10-30T20:37:23.750Z,26.1
2022-10-30T20:43:05.002Z,26.1
2022-10-30T20:48:27.160Z,26.1
2022-10-30T20:54:04.931Z,26
2022-10-30T20:59:27.870Z,26
2022-10-30T21:05:11.696Z,26
2022-10-30T21:10:33.107Z,25.9
2022-10-30T21:15:58.746Z,26
2022-10-30T21:21:42.432Z,25.9
2022-10-30T21:27:19.882Z,25.9
2022-10-30T21:33:00.129Z,25.9
2022-10-30T21:38:26.398Z,25.9
2022-10-30T21:44:09.158Z,25.9
2022-10-30T21:49:47.529Z,25.9
2022-10-30T21:55:30.972Z,25.9
2022-10-30T22:00:39.672Z,25.9
2022-10-30T22:06:04.382Z,25.9
2022-10-30T22:11:11.564Z,25.9
2022-10-30T22:16:17.832Z,25.9
2022-10-30T22:21:56.333Z,25.9
2022-10-30T22:27:17.359Z,25.9
2022-10-30T22:32:39.375Z,25.9
2022-10-30T22:38:16.821Z,25.9
2022-10-30T22:43:53.881Z,25.9
2022-10-30T22:49:14.529Z,25.9
2022-10-30T22:54:55.564Z,25.9
2022-10-30T23:00:35.911Z,25.9
2022-10-30T23:05:59.514Z,25.9
2022-10-30T23:11:22.400Z,25.9
2022-10-30T23:16:47.521Z,25.9
2022-10-30T23:22:08.186Z,25.9
2022-10-30T23:27:45.877Z,25.9
2022-10-30T23:33:23.207Z,25.9
2022-10-30T23:38:59.508Z,25.9
